Latest Weather Observations for Central Arnhem Plateau

IDD60801

Issued at 9:31 pm CST Saturday 1 August 2015 (issued every 30 minutes, with the page automatically refreshed every 10 minutes)

About weather observations | Map of weather stations | Latest weather observations for NT | Other Formats
Station Details ID: 014909 Name: CENTRAL ARNHEM PLATEAU Lat: -13.33 Lon: 133.09 Height: 416.0 m
Data from the previous 72 hours. | See also: Recent months for locations in Northern Territory
Date/Time
CST
Temp
°C
App
Temp
°C
Dew
Point
Rel
Hum
%
Delta-T
°C
Wind Press
QNH
hPa
Press
MSL
hPa
Rain
since 9 am
mm
Dir
 
Spd
km/h
Gust
km/h
Spd
kts
Gust
kts
01/09:30pm 22.2 22.1 9.4 44 7.0 CALM 0 0 0 0 1016.9 1014.8 0.0
01/09:00pm 23.6 23.7 10.3 43 7.5 CALM 0 0 0 0 1016.7 1014.6 0.0
01/08:30pm 24.5 23.0 10.4 41 8.0 ESE 9 11 5 6 1016.3 1014.3 0.0
01/08:00pm 25.1 23.6 10.6 40 8.2 ESE 9 13 5 7 1016.1 1014.1 0.0
01/07:30pm 25.6 23.6 10.2 38 8.7 ESE 11 15 6 8 1015.7 1013.7 0.0
01/07:00pm 26.1 24.3 10.7 38 8.8 ESE 11 13 6 7 1015.3 1013.2 0.0
01/06:30pm 27.1 24.4 10.3 35 9.6 ESE 15 22 8 12 1015.1 1013.0 0.0
01/06:00pm 28.3 25.3 10.5 33 10.2 ESE 17 24 9 13 1015.0 1012.9 0.0
01/05:30pm 29.2 26.2 9.3 29 11.3 ENE 15 20 8 11 1014.8 1012.7 0.0
01/05:00pm 29.2 25.8 7.7 26 11.9 ESE 15 24 8 13 1014.7 1012.6 0.0
01/04:30pm 29.5 25.4 6.2 23 12.6 ENE 17 24 9 13 1014.6 1012.5 0.0
01/04:00pm 29.4 24.6 4.8 21 13.0 ENE 19 30 10 16 1014.6 1012.5 0.0
01/03:30pm 29.0 25.2 3.8 20 13.0 ESE 13 19 7 10 1014.6 1012.5 0.0
01/03:00pm 29.4 25.6 4.1 20 13.2 ENE 13 28 7 15 1014.8 1012.7 0.0
01/02:30pm 28.7 23.8 2.1 18 13.3 ENE 17 28 9 15 1015.3 1013.2 0.0
01/02:00pm 28.6 24.7 3.5 20 12.9 NE 13 24 7 13 1015.8 1013.8 0.0
01/01:30pm 28.6 24.4 5.5 23 12.2 E 17 26 9 14 1016.3 1014.3 0.0
01/01:00pm 27.5 23.4 4.5 23 11.9 ENE 15 22 8 12 1016.9 1014.8 0.0
01/12:30pm 27.7 23.4 5.3 24 11.8 E 17 26 9 14 1017.4 1015.3 0.0
01/12:00pm 26.8 21.9 5.1 25 11.3 ENE 20 30 11 16 1017.7 1015.6 0.0
01/11:30am 26.6 21.9 5.0 25 11.2 ESE 19 26 10 14 1018.0 1016.0 0.0
01/11:00am 25.3 20.2 6.0 29 10.1 ESE 22 32 12 17 1018.3 1016.3 0.0
01/10:30am 25.3 20.2 6.0 29 10.1 E 22 32 12 17 1018.5 1016.5 0.0
01/10:00am 24.4 19.0 6.2 31 9.5 E 24 35 13 19 1018.6 1016.6 0.0
01/09:30am 23.1 21.1 11.5 48 6.6 ESE 13 15 7 8 1018.7 1016.7 0.0
01/09:00am 21.2 19.8 12.3 57 5.1 E 11 15 6 8 1018.2 1016.3 0.0
01/08:30am 19.6 19.2 13.1 66 3.8 ESE 7 9 4 5 1018.0 1016.1 0.0
01/08:00am 18.5 18.3 13.1 71 3.1 SE 6 7 3 4 1017.8 1015.9 0.0
01/07:30am 17.2 16.5 12.1 72 2.9 SSE 7 9 4 5 1017.5 1015.6 0.0
01/07:00am 14.7 13.7 8.9 68 3.0 SSE 4 7 2 4 1017.4 1015.5 0.0
01/06:30am 15.3 13.8 8.3 63 3.6 SE 6 7 3 4 1017.1 1015.1 0.0
01/06:00am 17.8 16.3 11.8 68 3.4 SE 11 11 6 6 1016.8 1014.8 0.0
01/05:30am 16.7 15.2 9.1 61 4.0 ESE 7 9 4 5 1016.6 1014.6 0.0
01/05:00am 18.1 16.5 10.2 60 4.3 SE 9 9 5 5 1016.3 1014.4 0.0
01/04:30am 16.9 15.4 8.6 58 4.3 ESE 6 7 3 4 1016.3 1014.4 0.0
01/04:00am 17.5 16.0 8.4 55 4.8 E 6 7 3 4 1016.3 1014.4 0.0
01/03:30am 19.1 17.8 9.3 53 5.3 ESE 6 7 3 4 1016.3 1014.4 0.0
01/03:00am 19.2 17.3 9.1 52 5.4 ESE 9 11 5 6 1016.3 1014.4 0.0
01/02:30am 19.2 17.6 8.2 49 5.8 E 6 7 3 4 1016.3 1014.4 0.0
01/02:00am 19.8 18.5 9.1 50 5.8 E 6 7 3 4 1016.6 1014.6 0.0
01/01:30am 20.0 18.3 8.4 47 6.2 ENE 7 9 4 5 1016.7 1014.7 0.0
01/01:00am 20.9 19.2 8.2 44 6.8 ENE 7 9 4 5 1016.9 1014.9 0.0
01/12:30am 21.2 19.0 7.8 42 7.1 ESE 9 11 5 6 1017.1 1015.1 0.0
01/12:00am 21.5 19.4 8.1 42 7.1 ENE 9 11 5 6 1017.1 1015.1 0.0
 
Date/Time
CST
Temp
°C
App
Temp
°C
Dew
Point
Rel
Hum
%
Delta-T
°C
Wind Press
QNH
hPa
Press
MSL
hPa
Rain
since 9 am
mm
Dir
 
Spd
km/h
Gust
km/h
Spd
kts
Gust
kts
31/11:30pm 22.1 19.5 7.9 40 7.6 ENE 11 13 6 7 1017.2 1015.2 0.0
31/11:00pm 22.8 20.3 8.1 39 7.9 E 11 17 6 9 1017.2 1015.2 0.0
31/10:30pm 23.0 20.9 8.3 39 7.9 ESE 9 15 5 8 1017.1 1015.1 0.0
31/10:00pm 23.3 20.5 8.6 39 8.0 ESE 13 19 7 10 1016.8 1014.8 0.0
31/09:30pm 23.8 21.1 9.0 39 8.1 ESE 13 19 7 10 1016.3 1014.4 0.0
31/09:00pm 23.0 21.5 8.3 39 7.9 ESE 6 9 3 5 1016.0 1014.1 0.0
31/08:30pm 24.6 22.8 8.1 35 8.9 ESE 7 11 4 6 1015.8 1013.9 0.0
31/08:00pm 25.3 23.6 8.3 34 9.3 ESE 7 11 4 6 1015.5 1013.6 0.0
31/07:30pm 25.9 23.8 8.4 33 9.6 ESE 9 13 5 7 1015.2 1013.3 0.0
31/07:00pm 26.5 24.5 8.5 32 9.9 ESE 9 11 5 6 1014.8 1012.8 0.0
31/06:30pm 27.5 24.7 8.4 30 10.6 ESE 13 20 7 11 1014.4 1012.4 0.0
31/06:00pm 28.4 25.4 7.6 27 11.4 ESE 13 20 7 11 1014.2 1012.2 0.0
31/05:30pm 29.0 25.3 8.1 27 11.6 SSE 17 28 9 15 1013.9 1011.9 0.0
31/05:00pm 29.0 25.3 8.1 27 11.6 ESE 17 28 9 15 1014.0 1012.0 0.0
31/04:30pm 28.9 25.2 8.0 27 11.6 ENE 17 26 9 14 1013.9 1011.9 0.0
31/04:00pm 29.3 26.1 8.4 27 11.7 E 15 26 8 14 1013.7 1011.8 0.0
31/03:30pm 29.2 25.3 8.8 28 11.5 E 19 32 10 17 1013.9 1011.9 0.0
31/03:00pm 29.1 24.9 8.2 27 11.6 ESE 20 35 11 19 1014.2 1012.2 0.0
31/02:30pm 29.1 24.9 8.2 27 11.6 E 20 32 11 17 1014.7 1012.7 0.0
31/02:00pm 29.2 24.8 8.8 28 11.5 ESE 22 32 12 17 1015.2 1013.3 0.0
31/01:30pm 29.1 24.6 8.7 28 11.4 E 22 32 12 17 1015.6 1013.7 0.0
31/01:00pm 28.5 23.7 8.7 29 11.1 E 24 35 13 19 1016.1 1014.2 0.0
31/12:30pm 28.6 23.8 8.8 29 11.1 ENE 24 35 13 19 1016.8 1014.8 0.0
31/12:00pm 27.8 21.9 9.1 31 10.5 ENE 30 44 16 24 1017.2 1015.2 0.0
31/11:30am 26.7 20.5 9.5 34 9.7 E 32 44 17 24 1017.5 1015.6 0.0
31/11:00am 26.8 21.7 10.5 36 9.3 E 28 41 15 22 1017.9 1016.0 0.0
31/10:30am 25.9 20.2 11.3 40 8.4 E 32 43 17 23 1018.1 1016.2 0.0
31/10:00am 25.4 21.2 12.3 44 7.7 ENE 26 37 14 20 1018.4 1016.5 0.0
31/09:43am 24.7 20.1 12.3 46 7.2 E 28 46 15 25 1018.6 1016.7 0.0
31/09:30am 24.3 20.2 12.6 48 6.8 ENE 26 35 14 19 1018.5 1016.6 0.0
31/09:00am 23.2 19.9 13.9 56 5.5 ENE 24 33 13 18 1018.4 1016.5 0.0
31/08:30am 21.8 20.0 14.4 63 4.4 ENE 17 22 9 12 1018.2 1016.3 0.0
31/08:00am 19.6 19.1 14.8 74 2.9 E 11 13 6 7 1018.0 1016.1 0.0
31/07:30am 18.3 18.6 14.4 78 2.3 ENE 6 9 3 5 1017.8 1015.9 0.0
31/07:00am 18.0 17.7 14.5 80 2.1 E 9 13 5 7 1017.7 1015.8 0.0
31/06:30am 18.0 17.7 14.5 80 2.1 E 9 11 5 6 1017.6 1015.7 0.0
31/06:00am 18.1 17.9 14.6 80 2.1 E 9 13 5 7 1017.6 1015.7 0.0
31/05:30am 17.8 17.9 14.5 81 1.9 ESE 7 9 4 5 1017.4 1015.5 0.0
31/05:00am 18.0 17.7 14.5 80 2.1 E 9 11 5 6 1017.4 1015.5 0.0
31/04:30am 18.3 18.0 14.4 78 2.3 E 9 13 5 7 1017.5 1015.6 0.0
31/04:00am 18.7 18.8 14.4 76 2.5 ENE 7 11 4 6 1017.6 1015.7 0.0
31/03:30am 19.0 18.6 14.1 73 2.9 ENE 9 13 5 7 1017.7 1015.8 0.0
31/03:00am 19.5 19.1 14.1 71 3.2 E 9 15 5 8 1017.8 1015.9 0.0
31/02:30am 19.8 19.0 14.0 69 3.4 E 11 15 6 8 1018.0 1016.1 0.0
31/02:00am 20.2 18.4 13.4 65 4.0 E 15 20 8 11 1018.1 1016.2 0.0
31/01:30am 20.4 18.4 12.6 61 4.5 E 15 20 8 11 1018.3 1016.4 0.0
31/01:00am 20.3 18.2 11.0 55 5.2 E 13 17 7 9 1018.4 1016.5 0.0
31/12:30am 20.6 17.8 8.6 46 6.4 ESE 13 17 7 9 1018.5 1016.6 0.0
31/12:00am 20.9 17.7 6.8 40 7.3 ESE 13 15 7 8 1018.7 1016.8 0.0
 
Date/Time
CST
Temp
°C
App
Temp
°C
Dew
Point
Rel
Hum
%
Delta-T
°C
Wind Press
QNH
hPa
Press
MSL
hPa
Rain
since 9 am
mm
Dir
 
Spd
km/h
Gust
km/h
Spd
kts
Gust
kts
30/11:30pm 21.3 17.7 5.2 35 8.1 ESE 13 20 7 11 1019.0 1017.0 0.0
30/11:00pm 21.7 18.5 5.2 34 8.3 ESE 11 15 6 8 1019.1 1017.1 0.0
30/10:30pm 21.7 18.5 5.2 34 8.3 ESE 11 13 6 7 1019.2 1017.2 0.0
30/10:00pm 22.4 18.9 5.4 33 8.7 SE 13 17 7 9 1019.1 1017.1 0.0
30/09:30pm 22.6 19.5 5.5 33 8.7 ESE 11 13 6 7 1019.0 1017.0 0.0
30/09:00pm 23.1 20.6 6.4 34 8.7 SE 9 13 5 7 1018.7 1016.8 0.0
30/08:30pm 23.8 21.3 6.6 33 9.0 SE 9 13 5 7 1018.4 1016.5 0.0
30/08:00pm 24.4 21.5 6.6 32 9.4 SE 11 13 6 7 1018.0 1016.1 0.0
30/07:30pm 25.2 22.4 6.9 31 9.7 SE 11 15 6 8 1017.5 1015.6 0.0
30/07:00pm 26.0 22.9 7.1 30 10.2 SE 13 20 7 11 1017.2 1015.2 0.0
30/06:30pm 26.8 22.8 8.3 31 10.2 SE 19 26 10 14 1016.8 1014.8 0.0
30/06:00pm 27.6 23.5 8.0 29 10.8 ESE 19 28 10 15 1016.5 1014.5 0.0
30/05:30pm 28.3 23.9 7.5 27 11.4 ESE 20 28 11 15 1016.1 1014.2 0.0
30/05:00pm 29.2 24.8 7.2 25 12.0 SE 20 35 11 19 1015.9 1014.0 0.0
30/04:30pm 28.5 23.6 7.1 26 11.6 SE 22 32 12 17 1015.7 1013.8 0.0
30/04:00pm 28.8 23.6 7.4 26 11.7 ESE 24 35 13 19 1015.7 1013.8 0.0
30/03:30pm 29.5 25.1 9.1 28 11.5 ESE 22 33 12 18 1015.8 1013.9 0.0
30/03:00pm 29.0 24.2 8.7 28 11.4 E 24 33 13 18 1016.1 1014.2 0.0
30/02:30pm 28.5 23.8 9.2 30 10.9 ESE 24 37 13 20 1016.5 1014.5 0.0
30/02:00pm 29.2 24.5 9.3 29 11.3 E 24 37 13 20 1016.9 1014.9 0.0
30/01:30pm 28.0 23.2 8.8 30 10.7 ESE 24 39 13 21 1017.5 1015.6 0.0
30/01:00pm 27.6 23.1 9.9 33 10.1 ESE 24 37 13 20 1018.1 1016.2 0.0
30/12:30pm 27.4 21.4 10.2 34 9.8 E 32 44 17 24 1018.5 1016.6 0.0
30/12:00pm 26.8 20.8 10.1 35 9.5 ESE 32 50 17 27 1018.8 1016.9 0.0
30/11:47am 27.3 22.2 10.5 35 9.6 ESE 28 48 15 26 1019.2 1017.2 0.0
30/11:30am 26.8 21.3 10.5 36 9.3 ESE 30 43 16 23 1019.4 1017.4 0.0
30/11:01am 26.4 21.3 10.5 37 9.1 E 28 46 15 25 1019.6 1017.7 0.0
30/11:00am 26.8 21.4 10.9 37 9.2 E 30 46 16 25 1019.7 1017.8 0.0
30/10:43am 26.1 20.4 11.1 39 8.6 E 32 50 17 27 1019.7 1017.8 0.0
30/10:30am 25.9 19.4 11.6 40 8.3 E 37 48 20 26 1019.7 1017.8 0.0
30/10:00am 25.3 20.5 11.5 42 8.0 ESE 28 39 15 21 1019.6 1017.7 0.0
30/09:33am 24.6 19.4 11.5 44 7.5 E 30 48 16 26 1019.6 1017.7 0.0
30/09:30am 24.6 20.1 11.5 44 7.5 E 26 39 14 21 1019.7 1017.8 0.0
30/09:00am 23.7 19.1 12.4 49 6.6 ESE 28 41 15 22 1019.5 1017.6 0.0
30/08:30am 22.5 19.2 12.7 54 5.7 E 22 33 12 18 1019.2 1017.2 0.0
30/08:00am 21.3 19.2 13.5 61 4.6 E 17 22 9 12 1019.1 1017.1 0.0
30/07:30am 19.8 18.5 13.7 68 3.6 E 13 19 7 10 1018.8 1016.9 0.0
30/07:00am 18.3 17.1 14.0 76 2.5 E 13 17 7 9 1018.5 1016.6 0.0
30/06:30am 17.8 17.5 14.3 80 2.0 E 9 11 5 6 1018.4 1016.5 0.0
30/06:00am 17.8 18.0 14.7 82 1.8 E 7 9 4 5 1018.3 1016.4 0.0
30/05:30am 18.2 18.2 15.1 82 1.8 E 9 13 5 7 1018.3 1016.4 0.0
30/05:00am 18.3 18.6 15.0 81 2.0 E 7 9 4 5 1018.3 1016.4 0.0
30/04:30am 18.6 18.2 15.1 80 2.1 E 11 13 6 7 1018.3 1016.4 0.0
30/04:00am 18.5 18.1 14.2 76 2.5 ESE 9 11 5 6 1018.4 1016.5 0.0
30/03:30am 19.0 17.9 14.3 74 2.8 ESE 13 17 7 9 1018.4 1016.5 0.0
30/03:00am 19.2 18.8 14.0 72 3.0 ESE 9 11 5 6 1018.5 1016.6 0.0
30/02:30am 19.8 19.4 14.0 69 3.4 E 9 11 5 6 1018.8 1016.9 0.0
30/02:00am 20.2 19.3 13.6 66 3.9 E 11 15 6 8 1019.1 1017.1 0.0
30/01:30am 20.4 19.3 13.1 63 4.2 ESE 11 15 6 8 1019.3 1017.3 0.0
30/01:00am 20.9 19.5 12.3 58 4.9 E 11 17 6 9 1019.6 1017.7 0.0
30/12:30am 21.4 19.5 11.7 54 5.5 E 13 17 7 9 1019.8 1017.9 0.0
30/12:00am 21.7 20.0 11.1 51 6.0 E 11 15 6 8 1019.9 1018.0 0.0
 
Date/Time
CST
Temp
°C
App
Temp
°C
Dew
Point
Rel
Hum
%
Delta-T
°C
Wind Press
QNH
hPa
Press
MSL
hPa
Rain
since 9 am
mm
Dir
 
Spd
km/h
Gust
km/h
Spd
kts
Gust
kts
29/11:30pm 22.0 19.7 10.5 48 6.4 E 13 17 7 9 1019.8 1017.9 0.0
29/11:00pm 22.1 20.0 9.9 46 6.7 E 11 15 6 8 1019.8 1017.9 0.0
29/10:30pm 22.3 19.7 9.5 44 7.0 ESE 13 17 7 9 1019.8 1017.9 0.0
29/10:00pm 22.5 20.3 9.3 43 7.2 ESE 11 15 6 8 1019.9 1018.0 0.0

Other Formats:

Comma delimited format used in spreadsheet applications
http://www.bom.gov.au/fwo/IDD60801/IDD60801.94141.axf

JavaScript Object Notation format (JSON) in row-major order
http://www.bom.gov.au/fwo/IDD60801/IDD60801.94141.json